createdAt,value
2022-12-08T00:02:04.040Z,96676.03
2022-12-08T00:04:30.705Z,96672.94
2022-12-08T00:06:57.362Z,96672.47
2022-12-08T00:09:25.555Z,96674.31
2022-12-08T00:11:52.103Z,96674.31
2022-12-08T00:14:20.861Z,96666.50
2022-12-08T00:16:47.331Z,96665.84
2022-12-08T00:19:13.733Z,96666.22
2022-12-08T00:21:40.140Z,96662.56
2022-12-08T00:24:06.573Z,96661.72
2022-12-08T00:26:32.961Z,96656.75
2022-12-08T00:28:59.350Z,96658.81
2022-12-08T00:31:25.807Z,96661.56
2022-12-08T00:33:52.239Z,96648.91
2022-12-08T00:36:18.831Z,96649.91
2022-12-08T00:38:45.301Z,96649.25
2022-12-08T00:41:11.625Z,96644.50
2022-12-08T00:43:38.053Z,96645.88
2022-12-08T00:46:04.456Z,96637.88
2022-12-08T00:48:30.831Z,96641.59
2022-12-08T00:50:57.147Z,96643.97
2022-12-08T00:53:23.499Z,96638.75
2022-12-08T00:55:49.926Z,96643.44
2022-12-08T00:58:16.367Z,96641.78
2022-12-08T01:00:42.913Z,96639.69
2022-12-08T01:03:09.461Z,96649.50
2022-12-08T01:05:36.308Z,96648.69
2022-12-08T01:08:02.747Z,96636.19
2022-12-08T01:10:29.240Z,96646.50
2022-12-08T01:12:55.624Z,96645.38
2022-12-08T01:15:21.978Z,96643.44
2022-12-08T01:17:48.325Z,96638.03
2022-12-08T01:20:14.740Z,96644.53
2022-12-08T01:22:41.091Z,96640.03
2022-12-08T01:25:07.434Z,96641.34
2022-12-08T01:27:33.865Z,96637.75
2022-12-08T01:30:00.251Z,96643.97
2022-12-08T01:32:26.666Z,96644.44
2022-12-08T01:34:53.020Z,96641.22
2022-12-08T01:37:19.414Z,96644.78
2022-12-08T01:39:45.828Z,96636.59
2022-12-08T01:42:12.272Z,96629.84
2022-12-08T01:44:38.632Z,96631.22
2022-12-08T01:47:05.025Z,96625.41
2022-12-08T01:49:32.680Z,96620.00
2022-12-08T01:51:59.050Z,96612.66
2022-12-08T01:54:25.480Z,96617.53
2022-12-08T01:56:52.776Z,96620.84
2022-12-08T01:59:21.525Z,96616.28
2022-12-08T02:01:47.958Z,96618.00
2022-12-08T02:04:14.398Z,96617.53
2022-12-08T02:06:40.759Z,96620.75
2022-12-08T02:09:07.120Z,96614.00
2022-12-08T02:11:33.527Z,96615.28
2022-12-08T02:13:59.929Z,96615.94
2022-12-08T02:16:26.388Z,96612.81
2022-12-08T02:19:14.813Z,96613.47
2022-12-08T02:21:39.397Z,96604.38
2022-12-08T02:24:11.849Z,96599.78
2022-12-08T02:26:38.180Z,96595.66
2022-12-08T02:29:04.542Z,96594.56
2022-12-08T02:31:30.968Z,96586.41
2022-12-08T02:33:57.365Z,96587.88
2022-12-08T02:36:23.922Z,96581.88
2022-12-08T02:38:50.279Z,96577.75
2022-12-08T02:41:16.613Z,96578.78
2022-12-08T02:43:43.057Z,96587.50
2022-12-08T02:46:09.432Z,96580.69
2022-12-08T02:48:37.930Z,96578.75
2022-12-08T02:51:04.359Z,96584.66
2022-12-08T02:53:30.915Z,96569.06
2022-12-08T02:55:57.268Z,96561.44
2022-12-08T02:58:23.688Z,96562.16
2022-12-08T03:00:50.216Z,96552.69
2022-12-08T03:03:16.686Z,96558.59
2022-12-08T03:05:43.019Z,96552.75
2022-12-08T03:08:09.482Z,96553.19
2022-12-08T03:10:35.865Z,96552.19
2022-12-08T03:13:02.244Z,96551.75
2022-12-08T03:15:28.655Z,96543.69
2022-12-08T03:17:55.060Z,96548.25
2022-12-08T03:20:21.399Z,96546.22
2022-12-08T03:22:47.783Z,96547.88
2022-12-08T03:25:14.202Z,96532.72
2022-12-08T03:27:40.561Z,96539.72
2022-12-08T03:30:07.145Z,96534.00
2022-12-08T03:32:33.771Z,96534.00
2022-12-08T03:35:00.166Z,96529.06
2022-12-08T03:37:26.698Z,96531.81
2022-12-08T03:39:53.019Z,96524.75
2022-12-08T03:42:19.366Z,96530.72
2022-12-08T03:44:45.691Z,96527.72
2022-12-08T03:47:12.447Z,96530.38
2022-12-08T03:49:39.114Z,96527.53
2022-12-08T03:52:05.510Z,96524.19
2022-12-08T03:54:31.841Z,96521.16
2022-12-08T03:56:58.250Z,96521.16
2022-12-08T03:59:24.697Z,96524.84
2022-12-08T04:01:51.107Z,96518.88
2022-12-08T04:04:17.553Z,96513.38
2022-12-08T04:06:43.895Z,96510.88
2022-12-08T04:09:12.892Z,96510.06
2022-12-08T04:11:39.293Z,96508.59
2022-12-08T04:14:05.646Z,96495.28
2022-12-08T04:16:32.141Z,96491.63
2022-12-08T04:18:58.528Z,96491.63
2022-12-08T04:21:25.688Z,96483.00
2022-12-08T04:23:56.127Z,96488.50
2022-12-08T04:26:25.630Z,96496.69
2022-12-08T04:28:52.012Z,96488.63
2022-12-08T04:31:18.409Z,96492.28
2022-12-08T04:33:45.047Z,96481.84
2022-12-08T04:36:11.362Z,96484.31
2022-12-08T04:38:37.780Z,96476.13
2022-12-08T04:41:04.128Z,96483.94
2022-12-08T04:43:30.556Z,96475.31
2022-12-08T04:45:56.926Z,96487.34
2022-12-08T04:48:23.382Z,96481.38
2022-12-08T04:50:49.759Z,96492.66
2022-12-08T04:53:16.124Z,96495.66
2022-12-08T04:55:42.680Z,96503.03
2022-12-08T04:58:09.899Z,96510.91
2022-12-08T05:00:36.313Z,96506.81
2022-12-08T05:03:02.770Z,96504.47
2022-12-08T05:05:29.202Z,96501.19
2022-12-08T05:07:55.666Z,96495.78
2022-12-08T05:10:22.106Z,96491.00
2022-12-08T05:12:48.602Z,96489.72
2022-12-08T05:15:14.944Z,96480.81
2022-12-08T05:17:41.310Z,96475.06
2022-12-08T05:20:07.650Z,96470.91
2022-12-08T05:22:33.974Z,96473.94
2022-12-08T05:25:00.308Z,96473.72
2022-12-08T05:27:26.666Z,96469.59
2022-12-08T05:29:53.204Z,96475.69
2022-12-08T05:32:19.524Z,96474.28
2022-12-08T05:34:45.865Z,96487.69
2022-12-08T05:37:12.266Z,96488.50
2022-12-08T05:39:38.656Z,96480.38
2022-12-08T05:42:05.038Z,96479.34
2022-12-08T05:44:31.388Z,96476.69
2022-12-08T05:46:57.956Z,96479.16
2022-12-08T05:49:24.432Z,96484.66
2022-12-08T05:51:50.823Z,96478.16
2022-12-08T05:54:17.198Z,96476.16
2022-12-08T05:56:43.566Z,96475.31
2022-12-08T05:59:09.952Z,96476.78
2022-12-08T06:01:36.296Z,96473.31
2022-12-08T06:04:02.804Z,96480.00
2022-12-08T06:06:29.336Z,96479.16
2022-12-08T06:08:55.698Z,96484.03
2022-12-08T06:11:22.168Z,96479.09
2022-12-08T06:13:48.528Z,96483.94
2022-12-08T06:16:17.512Z,96485.28
2022-12-08T06:18:44.051Z,96476.31
2022-12-08T06:21:10.462Z,96480.25
2022-12-08T06:23:37.953Z,96484.59
2022-12-08T06:26:06.737Z,96484.59
2022-12-08T06:28:33.519Z,96487.06
2022-12-08T06:30:59.875Z,96481.75
2022-12-08T06:33:29.389Z,96483.38
2022-12-08T06:35:55.824Z,96475.03
2022-12-08T06:38:22.181Z,96473.03
2022-12-08T06:40:48.523Z,96468.72
2022-12-08T06:43:15.131Z,96473.03
2022-12-08T06:45:41.501Z,96470.69
2022-12-08T06:48:07.936Z,96468.53
2022-12-08T06:50:34.297Z,96479.16
2022-12-08T06:53:05.224Z,96470.53
2022-12-08T06:58:20.630Z,96469.72
2022-12-08T07:00:48.352Z,96465.38
2022-12-08T07:03:14.896Z,96468.41
2022-12-08T07:05:41.274Z,96472.72
2022-12-08T07:08:08.710Z,96465.75
2022-12-08T07:10:35.362Z,96468.41
2022-12-08T07:13:01.834Z,96467.59
2022-12-08T07:15:28.260Z,96467.13
2022-12-08T07:17:59.526Z,96460.38
2022-12-08T07:20:26.624Z,96469.16
2022-12-08T07:22:53.070Z,96458.69
2022-12-08T07:25:19.524Z,96459.69
2022-12-08T07:27:45.976Z,96464.19
2022-12-08T07:30:12.376Z,96465.84
2022-12-08T07:32:38.719Z,96466.31
2022-12-08T07:35:12.668Z,96462.91
2022-12-08T07:37:43.675Z,96468.91
2022-12-08T07:40:10.132Z,96460.25
2022-12-08T07:42:36.681Z,96454.50
2022-12-08T07:45:03.111Z,96460.81
2022-12-08T07:47:31.818Z,96462.16
2022-12-08T07:50:01.232Z,96459.50
2022-12-08T07:52:27.888Z,96461.53
2022-12-08T07:54:54.406Z,96459.25
2022-12-08T07:57:20.928Z,96469.22
2022-12-08T07:59:47.346Z,96458.97
2022-12-08T08:02:24.085Z,96466.94
2022-12-08T08:10:12.144Z,96465.50
2022-12-08T08:12:38.638Z,96461.00
2022-12-08T08:15:04.987Z,96464.66
2022-12-08T08:17:40.918Z,96458.53
2022-12-08T08:20:13.085Z,96450.53
2022-12-08T08:22:39.543Z,96458.34
2022-12-08T08:25:07.021Z,96459.16
2022-12-08T08:27:33.563Z,96460.38
2022-12-08T08:30:00.038Z,96460.88
2022-12-08T08:32:26.579Z,96449.88
2022-12-08T08:34:53.889Z,96444.88
2022-12-08T08:37:20.381Z,96445.16
2022-12-08T08:39:46.904Z,96446.25
2022-12-08T08:42:13.374Z,96434.41
2022-12-08T08:44:39.808Z,96443.03
2022-12-08T08:47:08.351Z,96445.88
2022-12-08T08:49:34.922Z,96447.69
2022-12-08T08:52:01.441Z,96439.09
2022-12-08T08:54:27.931Z,96442.38
2022-12-08T08:56:54.331Z,96438.91
2022-12-08T08:59:20.756Z,96443.03
2022-12-08T09:01:47.190Z,96454.06
2022-12-08T09:04:13.787Z,96456.53
2022-12-08T09:06:40.326Z,96454.88
2022-12-08T09:09:09.703Z,96448.53
2022-12-08T09:14:29.149Z,96450.66
2022-12-08T09:16:55.593Z,96437.16
2022-12-08T09:19:22.059Z,96429.66
2022-12-08T09:21:48.574Z,96418.19
2022-12-08T09:24:15.034Z,96420.13
2022-12-08T09:26:41.486Z,96417.09
2022-12-08T09:29:08.069Z,96420.38
2022-12-08T09:31:34.918Z,96410.03
2022-12-08T09:34:02.200Z,96410.66
2022-12-08T09:36:38.322Z,96396.78
2022-12-08T09:39:04.855Z,96399.94
2022-12-08T09:41:36.867Z,96395.78
2022-12-08T09:44:05.789Z,96399.09
2022-12-08T09:46:33.135Z,96390.75
2022-12-08T09:51:50.391Z,96391.00
2022-12-08T09:54:17.209Z,96395.59
2022-12-08T09:56:43.804Z,96394.22
2022-12-08T09:59:10.231Z,96399.06
2022-12-08T10:01:36.637Z,96404.19
2022-12-08T10:04:03.068Z,96398.69
2022-12-08T10:06:29.528Z,96385.19
2022-12-08T10:08:58.135Z,96387.44
2022-12-08T10:11:25.652Z,96389.91
2022-12-08T10:13:52.109Z,96378.06
2022-12-08T10:16:24.187Z,96376.88
2022-12-08T10:18:54.607Z,96370.88
2022-12-08T10:21:21.156Z,96368.69
2022-12-08T10:23:47.737Z,96370.09
2022-12-08T10:26:14.311Z,96361.72
2022-12-08T10:28:44.852Z,96348.22
2022-12-08T10:31:19.731Z,96336.97
2022-12-08T10:33:51.466Z,96323.28
2022-12-08T10:36:18.083Z,96325.66
2022-12-08T10:38:44.604Z,96316.03
2022-12-08T10:41:11.072Z,96321.53
2022-12-08T10:43:41.097Z,96330.34
2022-12-08T10:46:07.601Z,96336.88
2022-12-08T10:48:34.147Z,96328.50
2022-12-08T10:51:00.668Z,96326.31
2022-12-08T10:53:27.097Z,96317.69
2022-12-08T10:55:53.529Z,96314.00
2022-12-08T10:58:19.996Z,96311.59
2022-12-08T11:00:46.946Z,96316.72
2022-12-08T11:05:54.010Z,96308.44
2022-12-08T11:08:20.566Z,96307.88
2022-12-08T11:10:47.002Z,96306.03
2022-12-08T11:13:13.504Z,96298.84
2022-12-08T11:15:39.859Z,96296.66
2022-12-08T11:18:06.261Z,96298.31
2022-12-08T11:20:32.625Z,96294.03
2022-12-08T11:22:58.975Z,96288.91
2022-12-08T11:25:25.352Z,96293.22
2022-12-08T11:27:53.531Z,96292.44
2022-12-08T11:30:34.902Z,96292.97
2022-12-08T11:33:01.364Z,96288.06
2022-12-08T11:35:27.807Z,96286.84
2022-12-08T11:38:03.103Z,96289.13
2022-12-08T11:40:41.159Z,96274.59
2022-12-08T11:43:07.581Z,96268.47
2022-12-08T11:45:34.097Z,96271.53
2022-12-08T11:48:00.654Z,96265.44
2022-12-08T11:50:27.085Z,96266.28
2022-12-08T11:52:54.910Z,96254.25
2022-12-08T11:55:21.396Z,96258.19
2022-12-08T11:57:47.900Z,96261.47
2022-12-08T12:00:14.493Z,96255.72
2022-12-08T12:02:40.999Z,96261.31
2022-12-08T12:05:07.499Z,96258.25
2022-12-08T12:07:34.131Z,96257.03
2022-12-08T12:10:00.604Z,96258.50
2022-12-08T12:12:27.041Z,96254.78
2022-12-08T12:14:53.526Z,96247.44
2022-12-08T12:17:20.023Z,96247.44
2022-12-08T12:19:46.405Z,96238.03
2022-12-08T12:22:12.980Z,96240.69
2022-12-08T12:24:39.426Z,96236.78
2022-12-08T12:27:05.819Z,96232.91
2022-12-08T12:29:32.197Z,96230.50
2022-12-08T12:31:58.598Z,96231.50
2022-12-08T12:34:24.990Z,96227.66
2022-12-08T12:36:51.585Z,96218.22
2022-12-08T12:39:18.021Z,96216.16
2022-12-08T12:41:44.777Z,96207.34
2022-12-08T12:44:11.389Z,96213.28
2022-12-08T12:46:37.840Z,96206.13
2022-12-08T12:49:06.429Z,96199.00
2022-12-08T12:51:32.860Z,96205.69
2022-12-08T12:54:03.790Z,96205.53
2022-12-08T12:56:30.908Z,96208.66
2022-12-08T12:58:57.269Z,96204.13
2022-12-08T13:04:04.062Z,96194.91
2022-12-08T13:09:21.093Z,96195.53
2022-12-08T13:11:50.604Z,96195.34
2022-12-08T13:14:17.028Z,96192.69
2022-12-08T13:16:43.587Z,96191.25
2022-12-08T13:21:50.265Z,96197.59
2022-12-08T13:24:16.781Z,96197.19
2022-12-08T13:26:43.145Z,96187.53
2022-12-08T13:29:09.583Z,96192.88
2022-12-08T13:34:16.304Z,96184.31
2022-12-08T13:36:50.637Z,96178.97
2022-12-08T13:39:17.028Z,96177.34
2022-12-08T13:41:43.476Z,96174.25
2022-12-08T13:45:03.641Z,96161.13
2022-12-08T13:47:32.135Z,96152.91
2022-12-08T13:58:02.524Z,96155.81
2022-12-08T14:00:31.650Z,96150.47
2022-12-08T14:03:07.530Z,96143.69
2022-12-08T14:06:09.899Z,96143.09
2022-12-08T14:08:36.369Z,96136.94
2022-12-08T14:11:11.114Z,96138.38
2022-12-08T14:13:37.550Z,96130.75
2022-12-08T14:16:03.984Z,96124.81
2022-12-08T14:18:30.502Z,96120.72
2022-12-08T14:21:19.940Z,96120.09
2022-12-08T14:23:43.346Z,96129.34
2022-12-08T14:26:09.772Z,96116.59
2022-12-08T14:28:41.475Z,96119.72
2022-12-08T14:31:10.967Z,96110.03
2022-12-08T14:33:37.682Z,96117.03
2022-12-08T14:36:04.105Z,96109.84
2022-12-08T14:38:30.663Z,96101.03
2022-12-08T14:43:37.348Z,96100.38
2022-12-08T14:46:03.806Z,96107.56
2022-12-08T14:48:30.167Z,96101.00
2022-12-08T14:50:56.553Z,96093.81
2022-12-08T14:53:22.967Z,96098.56
2022-12-08T14:55:49.536Z,96108.59
2022-12-08T14:58:16.778Z,96118.25
2022-12-08T15:00:43.199Z,96118.47
2022-12-08T15:03:09.694Z,96125.25
2022-12-08T15:05:36.170Z,96113.53
2022-12-08T15:08:02.654Z,96117.22
2022-12-08T15:10:29.193Z,96113.13
2022-12-08T15:12:55.666Z,96101.00
2022-12-08T15:15:25.025Z,96102.66
2022-12-08T15:17:51.420Z,96096.50
2022-12-08T15:20:18.036Z,96110.47
2022-12-08T15:22:44.415Z,96097.31
2022-12-08T15:25:10.902Z,96094.03
2022-12-08T15:27:49.588Z,96090.34
2022-12-08T15:30:16.795Z,96087.66
2022-12-08T15:32:43.153Z,96090.75
2022-12-08T15:35:09.565Z,96080.09
2022-12-08T15:37:36.000Z,96086.22
2022-12-08T15:40:02.818Z,96086.00
2022-12-08T15:42:31.096Z,96095.25
2022-12-08T15:47:37.802Z,96092.78
2022-12-08T15:50:04.596Z,96092.78
2022-12-08T15:52:33.317Z,96092.78
2022-12-08T15:54:59.695Z,96082.72
2022-12-08T15:57:53.402Z,96083.34
2022-12-08T16:00:36.348Z,96077.00
2022-12-08T16:03:27.632Z,96086.84
2022-12-08T16:06:10.278Z,96079.22
2022-12-08T16:08:56.227Z,96089.91
2022-12-08T16:12:04.401Z,96096.88
2022-12-08T16:14:47.119Z,96097.31
2022-12-08T16:16:53.866Z,96089.28
2022-12-08T16:19:36.371Z,96084.34
2022-12-08T16:22:51.262Z,96086.22
2022-12-08T16:24:51.708Z,96069.41
2022-12-08T16:30:04.558Z,96054.22
2022-12-08T16:35:21.630Z,96066.31
2022-12-08T16:37:49.593Z,96074.53
2022-12-08T16:40:17.907Z,96059.53
2022-12-08T16:42:51.410Z,96061.81
2022-12-08T16:45:17.965Z,96059.75
2022-12-08T16:47:44.491Z,96065.09
2022-12-08T16:50:10.944Z,96069.59
2022-12-08T16:52:37.421Z,96074.94
2022-12-08T16:55:04.108Z,96076.16
2022-12-08T16:57:30.852Z,96077.81
2022-12-08T16:59:58.224Z,96086.22
2022-12-08T17:02:24.647Z,96082.53
2022-12-08T17:04:51.227Z,96081.91
2022-12-08T17:07:21.724Z,96069.41
2022-12-08T17:09:48.146Z,96067.34
2022-12-08T17:12:14.507Z,96064.47
2022-12-08T17:14:40.914Z,96057.31
2022-12-08T17:17:07.331Z,96056.88
2022-12-08T17:19:33.781Z,96057.91
2022-12-08T17:22:00.265Z,96050.50
2022-12-08T17:24:26.717Z,96046.63
2022-12-08T17:26:53.167Z,96056.06
2022-12-08T17:29:19.615Z,96058.94
2022-12-08T17:31:46.095Z,96064.06
2022-12-08T17:34:12.897Z,96064.47
2022-12-08T17:36:39.737Z,96059.94
2022-12-08T17:39:06.125Z,96048.47
2022-12-08T17:41:37.409Z,96048.66
2022-12-08T17:44:03.778Z,96050.94
2022-12-08T17:46:30.214Z,96059.75
2022-12-08T17:48:58.225Z,96048.25
2022-12-08T17:51:24.699Z,96054.84
2022-12-08T17:53:51.203Z,96050.09
2022-12-08T17:56:17.649Z,96048.66
2022-12-08T17:58:52.639Z,96048.47
2022-12-08T18:01:20.589Z,96048.25
2022-12-08T18:03:47.086Z,96041.28
2022-12-08T18:06:13.494Z,96039.44
2022-12-08T18:08:39.946Z,96040.03
2022-12-08T18:11:06.324Z,96043.53
2022-12-08T18:13:32.782Z,96039.44
2022-12-08T18:15:59.187Z,96040.88
2022-12-08T18:18:25.586Z,96043.53
2022-12-08T18:20:51.979Z,96041.47
2022-12-08T18:23:18.476Z,96033.91
2022-12-08T18:25:44.904Z,96040.88
2022-12-08T18:28:11.239Z,96044.38
2022-12-08T18:30:37.659Z,96039.84
2022-12-08T18:33:04.208Z,96034.09
2022-12-08T18:35:30.638Z,96031.44
2022-12-08T18:37:57.068Z,96020.75
2022-12-08T18:40:23.482Z,96023.63
2022-12-08T18:42:50.156Z,96027.13
2022-12-08T18:45:22.062Z,96024.47
2022-12-08T18:47:48.676Z,96013.59
2022-12-08T18:50:15.080Z,96015.41
2022-12-08T18:52:41.437Z,96009.47
2022-12-08T18:55:08.047Z,96008.84
2022-12-08T18:57:34.615Z,96004.13
2022-12-08T19:00:00.977Z,96002.31
2022-12-08T19:02:27.571Z,95994.50
2022-12-08T19:04:53.984Z,95992.03
2022-12-08T19:07:20.352Z,95991.22
2022-12-08T19:09:46.704Z,95995.53
2022-12-08T19:12:13.099Z,95994.72
2022-12-08T19:14:39.458Z,95997.38
2022-12-08T19:17:05.810Z,96004.34
2022-12-08T19:19:32.255Z,96003.31
2022-12-08T19:21:58.694Z,96006.00
2022-12-08T19:24:25.049Z,96013.78
2022-12-08T19:26:51.472Z,96018.31
2022-12-08T19:29:17.908Z,96010.50
2022-12-08T19:31:44.412Z,96013.78
2022-12-08T19:34:10.862Z,96003.53
2022-12-08T19:36:37.202Z,96003.31
2022-12-08T19:39:03.606Z,96009.06
2022-12-08T19:41:32.695Z,96013.38
2022-12-08T19:43:59.111Z,96004.38
2022-12-08T19:46:25.604Z,96009.69
2022-12-08T19:48:54.248Z,96011.31
2022-12-08T19:51:20.619Z,96009.88
2022-12-08T19:53:47.960Z,96003.75
2022-12-08T19:56:14.507Z,95993.06
2022-12-08T19:58:40.876Z,95996.16
2022-12-08T20:01:07.270Z,95991.44
2022-12-08T20:03:33.733Z,95982.19
2022-12-08T20:06:00.144Z,95989.97
2022-12-08T20:08:26.612Z,95988.56
2022-12-08T20:10:53.163Z,95985.06
2022-12-08T20:13:19.582Z,95988.56
2022-12-08T20:15:46.045Z,95977.28
2022-12-08T20:18:12.569Z,95976.66
2022-12-08T20:20:38.917Z,95972.97
2022-12-08T20:23:05.311Z,95971.72
2022-12-08T20:25:31.709Z,95970.72
2022-12-08T20:27:58.047Z,95971.53
2022-12-08T20:30:24.497Z,95970.72
2022-12-08T20:32:50.845Z,95969.91
2022-12-08T20:35:17.234Z,95966.81
2022-12-08T20:37:43.759Z,95963.31
2022-12-08T20:40:10.194Z,95959.63
2022-12-08T20:42:36.593Z,95951.41
2022-12-08T20:45:03.195Z,95948.53
2022-12-08T20:47:31.724Z,95966.19
2022-12-08T20:49:58.298Z,95963.94
2022-12-08T20:52:24.656Z,95955.94
2022-12-08T20:54:51.422Z,95936.47
2022-12-08T20:57:18.249Z,95942.41
2022-12-08T20:59:44.743Z,95955.72
2022-12-08T21:02:11.820Z,95940.75
2022-12-08T21:04:38.579Z,95959.41
2022-12-08T21:07:05.178Z,95965.97
2022-12-08T21:09:31.774Z,95979.72
2022-12-08T21:11:58.292Z,95971.94
2022-12-08T21:14:24.910Z,95971.13
2022-12-08T21:16:53.681Z,95967.00
2022-12-08T21:19:20.823Z,95972.94
2022-12-08T21:21:47.587Z,95979.31
2022-12-08T21:24:14.373Z,95993.25
2022-12-08T21:26:41.007Z,96001.25
2022-12-08T21:29:07.479Z,96006.59
2022-12-08T21:31:34.189Z,96007.84
2022-12-08T21:34:00.915Z,96003.50
2022-12-08T21:36:27.465Z,95995.94
2022-12-08T21:38:53.983Z,95993.47
2022-12-08T21:41:20.489Z,95987.13
2022-12-08T21:43:47.020Z,95970.28
2022-12-08T21:46:13.470Z,95974.59
2022-12-08T21:48:40.203Z,95966.78
2022-12-08T21:51:06.964Z,95955.28
2022-12-08T21:53:33.355Z,95953.03
2022-12-08T21:55:59.876Z,95940.28
2022-12-08T21:58:26.411Z,95949.94
2022-12-08T22:00:53.031Z,95949.56
2022-12-08T22:03:37.218Z,95965.75
2022-12-08T22:06:04.156Z,95967.41
2022-12-08T22:08:30.612Z,95956.31
2022-12-08T22:10:57.317Z,95943.59
2022-12-08T22:13:23.686Z,95943.16
2022-12-08T22:15:50.603Z,95948.50
2022-12-08T22:18:17.245Z,95955.66
2022-12-08T22:20:44.551Z,95951.19
2022-12-08T22:23:11.089Z,95961.22
2022-12-08T22:25:37.762Z,95964.94
2022-12-08T22:28:04.396Z,95961.63
2022-12-08T22:30:35.588Z,95969.22
2022-12-08T22:33:05.159Z,95976.00
2022-12-08T22:35:31.672Z,95983.41
2022-12-08T22:37:58.013Z,95981.34
2022-12-08T22:40:25.186Z,95971.06
2022-12-08T22:42:51.759Z,95970.03
2022-12-08T22:45:18.980Z,95954.63
2022-12-08T22:47:45.348Z,95944.97
2022-12-08T22:50:12.060Z,95934.09
2022-12-08T22:52:38.643Z,95931.84
2022-12-08T22:55:05.070Z,95923.00
2022-12-08T22:57:31.457Z,95919.72
2022-12-08T22:59:57.822Z,95913.16
2022-12-08T23:02:24.238Z,95907.81
2022-12-08T23:04:50.695Z,95911.94
2022-12-08T23:07:17.398Z,95906.38
2022-12-08T23:09:43.795Z,95913.97
2022-12-08T23:12:10.235Z,95909.03
2022-12-08T23:14:36.640Z,95904.72
2022-12-08T23:17:03.113Z,95908.22
2022-12-08T23:19:29.632Z,95920.97
2022-12-08T23:21:56.188Z,95920.97
2022-12-08T23:24:22.613Z,95924.22
2022-12-08T23:26:48.959Z,95918.72
2022-12-08T23:29:15.461Z,95917.22
2022-12-08T23:31:42.082Z,95920.31
2022-12-08T23:34:08.735Z,95912.09
2022-12-08T23:36:35.188Z,95909.84
2022-12-08T23:39:01.547Z,95916.22
2022-12-08T23:41:28.096Z,95906.81
2022-12-08T23:43:54.545Z,95906.97
2022-12-08T23:46:21.274Z,95906.38
2022-12-08T23:48:47.701Z,95911.72
2022-12-08T23:51:14.531Z,95903.28
2022-12-08T23:53:41.129Z,95907.81
2022-12-08T23:56:07.697Z,95909.22
2022-12-08T23:58:34.105Z,95896.09
